Αρχική σελίδα
METAR-TAF:

METAR-TAF

Αεροδρόμια :

Λαχόρη, Πακιστάν

γεωγραφικό πλάτος: 31-31N, γεωγραφικό μήκος: 074-24E, υψόμετρο: 216 μ

Παρών καιρός

Η αναφορά έγινε 35 λεπτά πριν, στις 22:25 UTC
Ήπιος άνεμος
Θερμοκρασία 17°C
Υγρασία 77%
Πίεση 1014 hPa
Ορατότητα: 4000 μ
καπνός

METAR: OPLA 212225Z 00000KT 4000 FU NSC 17/13 Q1014 RMK A29.96 RMK QFE988

Χρόνος: 04:00 (23:00 UTC)

Πρόγνωση Καιρού

Η αναφορά έγινε 7 ώρες και 15 λεπτά πριν, στις 15:45 UTC
Η πρόγνωση ισχύει από τις 21 στις 18 UTC έως τις 22 στις 24 UTC
Άνεμος 5 kt από Δ/BΔ
Ορατότητα: 4000 μ
καπνός
Προσωρινά
από 22 στις 01 UTC έως τις 22 στις 05 UTC
Άνεμος 3 kt από μεταβλητές κατευθύνσεις
Ορατότητα: 2000 μ
Αχλής
Καθιστάμενος
μεταξύ 22 και 08 UTC
Άνεμος 6 kt από
Ορατότητα: 6000 μ

TAF: OPLA 211545Z 2118/2224 30005KT 4000 FU NSC TX31/2210Z TN15/2224Z TEMPO 2201/2205 VRB03KT 2000 BR NSC BECMG 22087/2214 32006KT 6000 NSC

Μετεωρολογικές αναφορές και προγνώσεις για περισσότερα από 4000 αεροδρόμια (δελτία METAR και TAF).

Οι διαθέσιμοι σταθμοί απεικονίζονται στο χάρτη με κίτρινες και κόκκινες κουκκίδες.

Μετακινήστε το ποντίκι πάνω από τις κουκκίδες για να δείτε το όνομα του σταθμού.

Στη συνέχεια, κάντε κλικ για να δείτε τις μετεωρολογικές αναφορές και τις προγνώσεις καιρού.

Για να αλλάξετε το χάρτη: κάντε κλικ στα πράσινα κουμπιά με τον μαύρο σταυρό για να ζουμάρετε, στο πράσινο κουμπί με την παύλα για να αφαιρέσετε το ζουμ ή στα πράσινα βέλη για να αντιπαραβάλλετε χάρτες.


METAR-TAF: